createdAt,value
2022-09-22T00:00:24.436Z,39.40
2022-09-22T00:10:31.983Z,40.50
2022-09-22T00:20:42.803Z,40.60
2022-09-22T00:30:50.327Z,40.00
2022-09-22T00:40:59.136Z,39.70
2022-09-22T00:51:11.747Z,39.40
2022-09-22T01:01:21.400Z,38.50
2022-09-22T01:11:31.451Z,37.10
2022-09-22T01:21:47.628Z,33.90
2022-09-22T01:32:05.403Z,30.70
2022-09-22T01:42:37.191Z,28.60
2022-09-22T01:53:01.425Z,27.20
2022-09-22T02:03:16.072Z,26.40
2022-09-22T02:13:28.221Z,25.90
2022-09-22T02:23:37.421Z,25.60
2022-09-22T02:33:47.363Z,25.20
2022-09-22T02:44:03.680Z,25.10
2022-09-22T02:54:16.106Z,25.10
2022-09-22T03:04:23.813Z,25.00
2022-09-22T03:14:32.813Z,25.00
2022-09-22T03:24:40.556Z,24.80
2022-09-22T03:34:49.174Z,24.80
2022-09-22T03:44:56.256Z,24.70
2022-09-22T03:55:05.297Z,24.80
2022-09-22T04:05:13.250Z,24.60
2022-09-22T04:15:22.245Z,24.60
2022-09-22T04:25:32.917Z,24.50
2022-09-22T04:35:41.959Z,24.50
2022-09-22T04:45:49.873Z,24.50
2022-09-22T04:55:59.359Z,24.40
2022-09-22T05:06:18.187Z,24.40
2022-09-22T05:17:39.185Z,24.40
2022-09-22T05:27:57.820Z,24.40
2022-09-22T05:38:05.772Z,24.40
2022-09-22T05:48:14.506Z,24.40
2022-09-22T05:58:21.516Z,24.40
2022-09-22T06:08:30.346Z,24.30
2022-09-22T06:19:04.158Z,24.40
2022-09-22T06:29:29.051Z,24.40
2022-09-22T06:39:54.756Z,24.40
2022-09-22T06:50:08.977Z,24.40
2022-09-22T07:00:19.393Z,24.40
2022-09-22T07:10:32.176Z,24.40
2022-09-22T07:20:40.600Z,24.30
2022-09-22T07:30:58.474Z,24.30
2022-09-22T07:41:29.059Z,24.30
2022-09-22T07:51:39.788Z,24.10
2022-09-22T08:01:50.250Z,24.00
2022-09-22T08:12:03.707Z,23.90
2022-09-22T08:22:14.872Z,23.90
2022-09-22T08:32:30.800Z,23.80
2022-09-22T08:42:56.041Z,23.80
2022-09-22T08:53:17.647Z,23.90
2022-09-22T09:03:47.154Z,23.80
2022-09-22T09:14:16.663Z,23.80
2022-09-22T09:35:07.335Z,23.80
2022-09-22T09:45:18.559Z,23.70
2022-09-22T09:55:34.702Z,23.70
2022-09-22T10:05:42.751Z,23.70
2022-09-22T10:16:06.722Z,23.70
2022-09-22T10:26:23.840Z,23.70
2022-09-22T10:36:34.602Z,23.60
2022-09-22T10:47:06.378Z,23.60
2022-09-22T10:57:31.015Z,23.60
2022-09-22T11:08:13.250Z,23.60
2022-09-22T11:18:45.001Z,23.50
2022-09-22T11:29:06.856Z,23.60
2022-09-22T11:39:24.633Z,23.60
2022-09-22T11:49:44.294Z,23.60
2022-09-22T12:00:00.610Z,23.60
2022-09-22T12:10:23.859Z,23.60
2022-09-22T12:20:43.335Z,23.60
2022-09-22T12:31:05.172Z,23.50
2022-09-22T12:41:23.144Z,23.50
2022-09-22T12:51:37.363Z,23.50
2022-09-22T13:01:46.656Z,23.50
2022-09-22T13:12:31.897Z,23.50
2022-09-22T13:22:44.176Z,23.60
2022-09-22T13:32:56.877Z,23.50
2022-09-22T13:43:09.349Z,23.50
2022-09-22T13:53:23.566Z,23.50
2022-09-22T14:03:40.219Z,23.50
2022-09-22T14:14:00.337Z,23.50
2022-09-22T14:24:21.983Z,23.60
2022-09-22T14:34:36.353Z,23.60
2022-09-22T14:44:57.441Z,23.90
2022-09-22T14:55:39.059Z,24.00
2022-09-22T15:05:56.843Z,24.20
2022-09-22T15:16:06.400Z,24.30
2022-09-22T15:26:25.185Z,24.50
2022-09-22T15:36:51.016Z,24.50
2022-09-22T15:47:17.676Z,24.30
2022-09-22T15:57:51.194Z,24.30
2022-09-22T16:08:17.088Z,24.40
2022-09-22T16:18:32.790Z,24.50
2022-09-22T16:30:16.404Z,24.50
2022-09-22T16:53:26.568Z,24.60
2022-09-22T17:17:26.266Z,24.80
2022-09-22T17:52:41.095Z,25.00
2022-09-22T18:02:50.780Z,25.30
2022-09-22T18:12:58.630Z,25.70
2022-09-22T18:23:08.014Z,25.80
2022-09-22T18:33:15.282Z,25.70
2022-09-22T18:43:24.123Z,25.60
2022-09-22T18:53:43.013Z,25.60
2022-09-22T19:03:52.462Z,25.50
2022-09-22T19:13:59.744Z,25.70
2022-09-22T19:24:10.600Z,25.80
2022-09-22T19:34:18.211Z,25.70
2022-09-22T19:44:27.983Z,25.60
2022-09-22T19:54:35.798Z,25.60
2022-09-22T20:04:45.089Z,25.60
2022-09-22T20:14:52.648Z,25.60
2022-09-22T20:25:03.281Z,25.60
2022-09-22T20:35:12.743Z,25.60
2022-09-22T20:45:23.887Z,25.60
2022-09-22T20:55:31.542Z,25.50
2022-09-22T21:05:40.377Z,25.60
2022-09-22T21:15:47.704Z,25.50
2022-09-22T21:26:05.007Z,25.60
2022-09-22T21:36:13.582Z,25.70
2022-09-22T21:46:26.072Z,25.70
2022-09-22T21:56:35.044Z,25.70
2022-09-22T22:06:45.288Z,25.80
2022-09-22T22:16:54.180Z,25.90
2022-09-22T22:27:06.762Z,26.00
2022-09-22T22:37:15.200Z,26.10
2022-09-22T22:47:26.537Z,26.20
2022-09-22T22:57:33.702Z,26.40
2022-09-22T23:07:46.437Z,26.50
2022-09-22T23:17:53.457Z,26.70
2022-09-22T23:28:03.021Z,27.00
2022-09-22T23:38:14.139Z,27.60
2022-09-22T23:49:06.001Z,28.10
2022-09-22T23:59:15.539Z,28.50
